Airport ICAO


18:55 UTC

12°C

Clear skies


An affordable passengers' Moving Map for your aircraft. Made for the iPad and the iPhone
More information here

LFLB Aix Les Bains


Chambery FRANCE   VFR CAVOK


METAR LFLB 231830Z AUTO VRB02KT CAVOK 12/04 Q1024 NOSIG 0h25min

TAF LFLB 231700Z 2318/2418 33005KT CAVOK BECMG 2318/2321 VRB03KT PROB40 TEMPO 2403/2408 3000 BR PROB30 TEMPO 2405/2408 0700 BCFG 1h55min





NOTAMS

OPEN